createdAt,value
2022-10-30T00:00:00.213Z,95.92
2022-10-30T00:02:28.001Z,95.71
2022-10-30T00:04:55.861Z,95.62
2022-10-30T00:07:24.968Z,95.03
2022-10-30T00:09:52.756Z,94.51
2022-10-30T00:12:20.582Z,95.15
2022-10-30T00:14:48.263Z,97.78
2022-10-30T00:17:16.026Z,98.10
2022-10-30T00:19:43.806Z,98.30
2022-10-30T00:22:11.522Z,98.25
2022-10-30T00:24:40.712Z,100.00
2022-10-30T00:27:08.606Z,98.65
2022-10-30T00:29:36.370Z,98.59
2022-10-30T00:32:04.292Z,100.00
2022-10-30T00:34:32.091Z,100.00
2022-10-30T00:36:59.884Z,99.80
2022-10-30T00:39:27.719Z,100.00
2022-10-30T00:41:56.970Z,100.00
2022-10-30T00:44:37.257Z,100.00
2022-10-30T00:47:12.933Z,100.00
2022-10-30T00:49:50.827Z,100.00
2022-10-30T00:52:20.569Z,100.00
2022-10-30T00:54:48.716Z,100.00
2022-10-30T00:57:18.997Z,100.00
2022-10-30T00:59:47.876Z,100.00
2022-10-30T01:02:15.988Z,100.00
2022-10-30T01:04:46.476Z,100.00
2022-10-30T01:07:17.376Z,100.00
2022-10-30T01:09:47.508Z,100.00
2022-10-30T01:12:17.943Z,100.00
2022-10-30T01:14:50.300Z,100.00
2022-10-30T01:17:52.598Z,100.00
2022-10-30T01:20:36.557Z,99.54
2022-10-30T01:23:17.113Z,97.83
2022-10-30T01:26:01.966Z,96.92
2022-10-30T01:28:41.782Z,95.98
2022-10-30T01:31:24.465Z,95.01
2022-10-30T01:34:07.391Z,94.57
2022-10-30T01:36:41.357Z,94.13
2022-10-30T01:39:14.248Z,93.79
2022-10-30T01:41:42.768Z,94.81
2022-10-30T01:44:19.258Z,94.30
2022-10-30T01:46:59.711Z,96.58
2022-10-30T01:50:06.192Z,99.60
2022-10-30T01:52:43.176Z,100.00
2022-10-30T01:55:19.839Z,100.00
2022-10-30T01:57:59.194Z,99.81
2022-10-30T02:00:28.708Z,98.68
2022-10-30T02:02:59.500Z,100.00
2022-10-30T02:05:38.477Z,99.87
2022-10-30T02:08:06.874Z,99.64
2022-10-30T02:10:39.330Z,100.00
2022-10-30T02:13:07.102Z,100.00
2022-10-30T02:15:36.946Z,100.00
2022-10-30T02:18:05.679Z,99.68
2022-10-30T02:20:35.631Z,99.13
2022-10-30T02:23:04.453Z,97.12
2022-10-30T02:25:34.207Z,96.67
2022-10-30T02:28:02.230Z,95.67
2022-10-30T02:30:32.141Z,96.34
2022-10-30T02:33:02.317Z,96.50
2022-10-30T02:35:30.946Z,95.51
2022-10-30T02:38:00.462Z,97.70
2022-10-30T02:40:28.948Z,96.73
2022-10-30T02:42:57.693Z,95.76
2022-10-30T02:45:25.360Z,95.14
2022-10-30T02:47:56.056Z,94.46
2022-10-30T02:50:24.012Z,94.13
2022-10-30T02:52:52.752Z,94.36
2022-10-30T02:55:21.949Z,93.88
2022-10-30T02:57:49.791Z,93.60
2022-10-30T03:00:19.102Z,93.39
2022-10-30T03:02:46.919Z,92.32
2022-10-30T03:05:14.737Z,91.92
2022-10-30T03:07:42.393Z,91.64
2022-10-30T03:10:10.664Z,91.77
2022-10-30T03:12:39.756Z,92.00
2022-10-30T03:15:08.497Z,91.61
2022-10-30T03:17:36.806Z,91.80
2022-10-30T03:20:04.982Z,91.92
2022-10-30T03:22:34.192Z,91.96
2022-10-30T03:25:01.930Z,92.39
2022-10-30T03:27:29.791Z,91.83
2022-10-30T03:29:59.362Z,91.31
2022-10-30T03:32:27.609Z,91.28
2022-10-30T03:34:55.612Z,92.66
2022-10-30T03:37:23.460Z,95.05
2022-10-30T03:39:51.260Z,96.70
2022-10-30T03:42:22.322Z,96.59
2022-10-30T03:44:52.322Z,96.93
2022-10-30T03:47:23.491Z,94.89
2022-10-30T03:49:51.216Z,93.61
2022-10-30T03:52:21.324Z,93.98
2022-10-30T03:54:50.554Z,94.71
2022-10-30T03:57:20.403Z,95.95
2022-10-30T04:00:08.190Z,96.07
2022-10-30T04:02:47.523Z,94.13
2022-10-30T04:05:18.132Z,94.25
2022-10-30T04:07:46.674Z,93.56
2022-10-30T04:10:20.878Z,93.33
2022-10-30T04:12:51.635Z,93.24
2022-10-30T04:15:19.731Z,92.65
2022-10-30T04:17:52.413Z,92.78
2022-10-30T04:20:22.557Z,92.40
2022-10-30T04:22:56.142Z,92.75
2022-10-30T04:25:24.153Z,92.28
2022-10-30T04:27:53.114Z,92.92
2022-10-30T04:30:22.141Z,93.03
2022-10-30T04:32:49.980Z,92.89
2022-10-30T04:35:23.739Z,93.36
2022-10-30T04:37:55.848Z,93.39
2022-10-30T04:40:24.693Z,92.87
2022-10-30T04:42:58.396Z,91.59
2022-10-30T04:45:27.039Z,92.11
2022-10-30T04:48:01.819Z,91.53
2022-10-30T04:50:34.020Z,92.67
2022-10-30T04:53:05.253Z,92.78
2022-10-30T04:55:33.617Z,92.33
2022-10-30T04:58:02.929Z,91.71
2022-10-30T05:00:33.548Z,91.34
2022-10-30T05:03:17.081Z,91.29
2022-10-30T05:05:47.148Z,91.03
2022-10-30T05:08:14.918Z,91.38
2022-10-30T05:10:43.093Z,91.65
2022-10-30T05:13:12.286Z,91.20
2022-10-30T05:15:40.354Z,90.82
2022-10-30T05:18:09.413Z,91.10
2022-10-30T05:20:37.286Z,91.13
2022-10-30T05:23:06.786Z,91.20
2022-10-30T05:25:38.191Z,91.05
2022-10-30T05:28:08.998Z,91.31
2022-10-30T05:30:43.857Z,91.10
2022-10-30T05:33:24.347Z,90.85
2022-10-30T05:35:52.120Z,91.81
2022-10-30T05:38:21.457Z,91.63
2022-10-30T05:40:51.188Z,91.47
2022-10-30T05:43:19.566Z,90.94
2022-10-30T05:45:49.801Z,90.69
2022-10-30T05:48:19.101Z,91.40
2022-10-30T05:50:47.998Z,91.80
2022-10-30T05:53:28.058Z,91.73
2022-10-30T05:55:57.734Z,91.29
2022-10-30T05:58:26.630Z,90.90
2022-10-30T06:00:56.935Z,90.72
2022-10-30T06:03:39.439Z,90.17
2022-10-30T06:06:07.974Z,90.00
2022-10-30T06:08:37.785Z,90.09
2022-10-30T06:11:20.928Z,90.05
2022-10-30T06:13:53.724Z,89.42
2022-10-30T06:16:27.645Z,90.40
2022-10-30T06:19:15.471Z,90.63
2022-10-30T06:21:46.552Z,89.90
2022-10-30T06:24:19.256Z,89.53
2022-10-30T06:27:05.589Z,88.81
2022-10-30T06:29:33.403Z,89.62
2022-10-30T06:32:05.542Z,89.55
2022-10-30T06:34:34.885Z,89.84
2022-10-30T06:37:03.092Z,89.46
2022-10-30T06:39:32.708Z,90.34
2022-10-30T06:42:23.504Z,90.11
2022-10-30T06:45:09.395Z,89.06
2022-10-30T06:47:37.971Z,88.86
2022-10-30T06:50:07.086Z,87.30
2022-10-30T06:52:35.935Z,87.92
2022-10-30T06:55:07.007Z,86.00
2022-10-30T06:57:47.240Z,84.88
2022-10-30T07:00:33.701Z,85.39
2022-10-30T07:03:20.973Z,83.79
2022-10-30T07:05:49.365Z,84.78
2022-10-30T07:08:17.465Z,84.65
2022-10-30T07:10:46.597Z,84.65
2022-10-30T07:13:32.993Z,83.73
2022-10-30T07:16:19.331Z,83.72
2022-10-30T07:18:49.455Z,83.37
2022-10-30T07:21:17.594Z,80.97
2022-10-30T07:23:45.450Z,81.60
2022-10-30T07:26:46.715Z,81.17
2022-10-30T07:29:34.825Z,79.96
2022-10-30T07:32:20.997Z,80.23
2022-10-30T07:35:08.522Z,78.42
2022-10-30T07:37:57.020Z,78.23
2022-10-30T07:40:37.540Z,78.14
2022-10-30T07:43:26.515Z,76.83
2022-10-30T07:46:03.853Z,75.26
2022-10-30T07:48:57.700Z,74.44
2022-10-30T07:51:30.770Z,73.88
2022-10-30T07:53:58.969Z,72.99
2022-10-30T07:56:26.805Z,72.40
2022-10-30T07:58:58.533Z,72.14
2022-10-30T08:01:45.289Z,72.08
2022-10-30T08:04:45.557Z,71.34
2022-10-30T08:07:34.515Z,70.62
2022-10-30T08:10:02.499Z,70.84
2022-10-30T08:12:30.310Z,69.62
2022-10-30T08:14:59.598Z,68.32
2022-10-30T08:17:27.756Z,68.71
2022-10-30T08:19:56.980Z,67.75
2022-10-30T08:22:25.090Z,68.72
2022-10-30T08:25:00.518Z,66.48
2022-10-30T08:27:31.290Z,66.45
2022-10-30T08:30:00.381Z,66.95
2022-10-30T08:32:28.173Z,66.66
2022-10-30T08:35:19.471Z,65.04
2022-10-30T08:37:52.378Z,65.84
2022-10-30T08:40:22.241Z,65.44
2022-10-30T08:42:59.046Z,65.52
2022-10-30T08:45:31.174Z,63.94
2022-10-30T08:48:16.066Z,63.58
2022-10-30T08:50:45.587Z,63.75
2022-10-30T08:53:20.384Z,61.73
2022-10-30T08:55:49.376Z,61.25
2022-10-30T08:58:24.909Z,62.65
2022-10-30T09:00:58.702Z,61.11
2022-10-30T09:03:47.829Z,62.02
2022-10-30T09:06:34.349Z,60.22
2022-10-30T09:09:20.969Z,61.65
2022-10-30T09:11:53.505Z,59.33
2022-10-30T09:14:21.491Z,60.21
2022-10-30T09:16:50.609Z,59.70
2022-10-30T09:19:21.497Z,59.67
2022-10-30T09:21:50.473Z,60.57
2022-10-30T09:24:18.316Z,58.92
2022-10-30T09:26:51.950Z,58.27
2022-10-30T09:29:25.714Z,59.57
2022-10-30T09:32:00.489Z,61.09
2022-10-30T09:34:32.058Z,60.98
2022-10-30T09:37:08.320Z,59.12
2022-10-30T09:39:38.569Z,59.26
2022-10-30T09:42:39.208Z,58.53
2022-10-30T09:45:29.753Z,59.94
2022-10-30T09:48:14.487Z,58.39
2022-10-30T09:51:03.225Z,58.42
2022-10-30T09:53:39.788Z,57.09
2022-10-30T09:56:22.290Z,56.88
2022-10-30T09:59:02.710Z,57.30
2022-10-30T10:01:37.986Z,56.77
2022-10-30T10:04:26.705Z,56.88
2022-10-30T10:07:30.155Z,56.96
2022-10-30T10:10:25.106Z,55.45
2022-10-30T10:13:00.994Z,56.41
2022-10-30T10:15:38.383Z,55.23
2022-10-30T10:18:13.545Z,55.66
2022-10-30T10:20:46.157Z,56.78
2022-10-30T10:23:19.346Z,55.45
2022-10-30T10:25:54.480Z,55.72
2022-10-30T10:28:43.987Z,55.03
2022-10-30T10:31:25.048Z,53.01
2022-10-30T10:34:10.178Z,53.44
2022-10-30T10:36:47.456Z,52.74
2022-10-30T10:39:34.911Z,53.87
2022-10-30T10:42:18.545Z,53.11
2022-10-30T10:44:54.229Z,53.31
2022-10-30T10:47:46.826Z,51.63
2022-10-30T10:50:22.768Z,51.38
2022-10-30T10:52:57.486Z,52.63
2022-10-30T10:55:29.633Z,52.50
2022-10-30T10:58:02.781Z,52.04
2022-10-30T11:00:31.314Z,51.81
2022-10-30T11:03:06.274Z,51.28
2022-10-30T11:05:37.118Z,50.82
2022-10-30T11:08:14.335Z,51.85
2022-10-30T11:10:42.077Z,50.62
2022-10-30T11:13:14.595Z,49.99
2022-10-30T11:15:52.353Z,50.66
2022-10-30T11:18:20.057Z,50.68
2022-10-30T11:20:58.116Z,49.95
2022-10-30T11:23:39.805Z,49.67
2022-10-30T11:26:28.352Z,48.52
2022-10-30T11:28:58.976Z,48.64
2022-10-30T11:31:34.191Z,48.68
2022-10-30T11:34:29.552Z,48.79
2022-10-30T11:36:57.607Z,48.48
2022-10-30T11:39:29.065Z,48.66
2022-10-30T11:42:04.206Z,47.01
2022-10-30T11:44:36.193Z,48.62
2022-10-30T11:47:05.249Z,48.50
2022-10-30T11:49:42.161Z,46.74
2022-10-30T11:52:10.876Z,46.88
2022-10-30T11:54:44.758Z,46.59
2022-10-30T11:57:21.589Z,46.80
2022-10-30T11:59:51.731Z,49.54
2022-10-30T12:02:22.859Z,49.51
2022-10-30T12:04:51.861Z,49.49
2022-10-30T12:07:26.166Z,48.49
2022-10-30T12:09:55.297Z,49.17
2022-10-30T12:12:27.753Z,48.57
2022-10-30T12:14:56.206Z,48.84
2022-10-30T12:17:24.502Z,48.76
2022-10-30T12:19:57.334Z,49.07
2022-10-30T12:22:33.166Z,47.95
2022-10-30T12:25:04.932Z,47.75
2022-10-30T12:27:37.444Z,48.60
2022-10-30T12:30:16.949Z,48.36
2022-10-30T12:32:51.351Z,48.16
2022-10-30T12:35:28.406Z,47.12
2022-10-30T12:37:58.434Z,48.53
2022-10-30T12:40:31.826Z,48.09
2022-10-30T12:43:06.595Z,48.12
2022-10-30T12:45:41.221Z,47.69
2022-10-30T12:48:17.627Z,48.17
2022-10-30T12:50:56.989Z,49.46
2022-10-30T12:53:30.123Z,48.16
2022-10-30T12:56:02.859Z,48.41
2022-10-30T12:58:38.518Z,50.28
2022-10-30T13:01:14.109Z,49.45
2022-10-30T13:03:49.975Z,50.52
2022-10-30T13:06:22.010Z,48.75
2022-10-30T13:08:59.824Z,48.33
2022-10-30T13:11:40.936Z,48.84
2022-10-30T13:14:15.831Z,48.86
2022-10-30T13:16:43.655Z,50.06
2022-10-30T13:19:14.874Z,51.35
2022-10-30T13:21:54.165Z,51.38
2022-10-30T13:24:26.319Z,51.74
2022-10-30T13:27:01.507Z,51.45
2022-10-30T13:29:38.517Z,51.29
2022-10-30T13:32:25.755Z,52.90
2022-10-30T13:34:59.697Z,53.51
2022-10-30T13:37:35.940Z,52.88
2022-10-30T13:40:17.344Z,53.35
2022-10-30T13:42:58.010Z,52.74
2022-10-30T13:45:50.674Z,52.91
2022-10-30T13:48:31.101Z,51.94
2022-10-30T13:51:17.526Z,51.97
2022-10-30T13:53:49.407Z,51.96
2022-10-30T13:56:22.003Z,52.27
2022-10-30T13:59:10.061Z,51.19
2022-10-30T14:01:44.768Z,51.90
2022-10-30T14:04:18.749Z,50.82
2022-10-30T14:06:54.935Z,51.66
2022-10-30T14:09:31.239Z,50.89
2022-10-30T14:12:02.151Z,50.92
2022-10-30T14:14:32.642Z,51.21
2022-10-30T14:17:13.252Z,51.30
2022-10-30T14:20:17.402Z,50.79
2022-10-30T14:23:09.992Z,52.50
2022-10-30T14:25:37.905Z,52.61
2022-10-30T14:28:20.630Z,53.23
2022-10-30T14:31:03.226Z,55.00
2022-10-30T14:33:36.344Z,55.45
2022-10-30T14:36:14.704Z,53.99
2022-10-30T14:38:42.648Z,56.70
2022-10-30T14:41:38.890Z,56.73
2022-10-30T14:44:38.680Z,57.32
2022-10-30T14:47:46.011Z,58.48
2022-10-30T14:50:28.981Z,59.68
2022-10-30T14:53:11.323Z,60.66
2022-10-30T14:55:51.910Z,61.53
2022-10-30T14:58:26.032Z,60.93
2022-10-30T15:01:25.707Z,60.68
2022-10-30T15:04:05.646Z,59.90
2022-10-30T15:06:43.612Z,60.23
2022-10-30T15:09:34.995Z,61.54
2022-10-30T15:12:31.187Z,62.09
2022-10-30T15:15:02.996Z,63.65
2022-10-30T15:17:34.304Z,64.27
2022-10-30T15:20:06.001Z,64.12
2022-10-30T15:22:36.247Z,65.29
2022-10-30T15:25:06.041Z,64.90
2022-10-30T15:27:35.663Z,65.26
2022-10-30T15:30:05.745Z,65.97
2022-10-30T15:32:33.574Z,65.63
2022-10-30T15:35:06.280Z,65.05
2022-10-30T15:37:35.394Z,65.30
2022-10-30T15:40:18.173Z,64.91
2022-10-30T15:42:47.517Z,65.76
2022-10-30T15:45:19.109Z,66.22
2022-10-30T15:47:51.410Z,65.92
2022-10-30T15:50:22.016Z,66.08
2022-10-30T15:52:52.278Z,66.40
2022-10-30T15:55:26.882Z,67.13
2022-10-30T15:58:12.920Z,67.83
2022-10-30T16:00:41.004Z,69.05
2022-10-30T16:03:18.300Z,68.18
2022-10-30T16:05:46.365Z,70.71
2022-10-30T16:08:17.426Z,69.09
2022-10-30T16:10:47.488Z,71.82
2022-10-30T16:13:18.912Z,71.37
2022-10-30T16:15:47.993Z,71.49
2022-10-30T16:18:21.169Z,70.25
2022-10-30T16:20:52.209Z,70.97
2022-10-30T16:23:21.688Z,71.32
2022-10-30T16:25:55.889Z,71.14
2022-10-30T16:28:26.157Z,72.32
2022-10-30T16:30:54.663Z,71.81
2022-10-30T16:33:27.433Z,71.32
2022-10-30T16:35:56.539Z,71.42
2022-10-30T16:38:29.237Z,72.70
2022-10-30T16:40:57.506Z,72.57
2022-10-30T16:43:28.317Z,73.53
2022-10-30T16:45:57.965Z,75.13
2022-10-30T16:48:30.088Z,74.72
2022-10-30T16:51:01.781Z,74.35
2022-10-30T16:53:31.856Z,74.06
2022-10-30T16:56:00.753Z,74.36
2022-10-30T16:58:31.037Z,74.30
2022-10-30T17:01:05.520Z,74.41
2022-10-30T17:03:38.147Z,75.92
2022-10-30T17:06:08.816Z,77.44
2022-10-30T17:08:42.555Z,76.71
2022-10-30T17:11:18.909Z,77.10
2022-10-30T17:14:01.216Z,76.54
2022-10-30T17:16:30.566Z,76.35
2022-10-30T17:19:02.380Z,76.20
2022-10-30T17:21:39.514Z,78.61
2022-10-30T17:24:21.370Z,77.58
2022-10-30T17:26:58.357Z,76.86
2022-10-30T17:29:45.491Z,76.13
2022-10-30T17:32:20.107Z,75.89
2022-10-30T17:34:48.761Z,77.31
2022-10-30T17:37:16.610Z,81.88
2022-10-30T17:39:45.712Z,80.58
2022-10-30T17:42:13.511Z,81.59
2022-10-30T17:44:41.345Z,81.37
2022-10-30T17:47:16.515Z,78.72
2022-10-30T17:49:45.019Z,78.87
2022-10-30T17:52:17.317Z,77.93
2022-10-30T17:54:46.628Z,80.57
2022-10-30T17:57:16.212Z,81.85
2022-10-30T17:59:46.538Z,80.69
2022-10-30T18:02:15.871Z,79.39
2022-10-30T18:04:44.274Z,81.25
2022-10-30T18:07:12.907Z,82.55
2022-10-30T18:09:40.844Z,81.84
2022-10-30T18:12:15.013Z,80.89
2022-10-30T18:14:45.451Z,83.04
2022-10-30T18:17:13.501Z,83.28
2022-10-30T18:19:41.349Z,81.75
2022-10-30T18:22:11.158Z,82.06
2022-10-30T18:24:38.907Z,80.81
2022-10-30T18:27:06.693Z,80.60
2022-10-30T18:29:35.867Z,79.83
2022-10-30T18:32:09.524Z,79.25
2022-10-30T18:34:37.564Z,78.28
2022-10-30T18:37:06.204Z,78.83
2022-10-30T18:39:34.035Z,78.31
2022-10-30T18:42:01.863Z,78.17
2022-10-30T18:44:29.966Z,77.28
2022-10-30T18:47:02.961Z,77.68
2022-10-30T18:49:33.273Z,77.01
2022-10-30T18:52:01.011Z,76.80
2022-10-30T18:54:28.819Z,77.24
2022-10-30T18:56:56.672Z,77.09
2022-10-30T18:59:26.635Z,77.85
2022-10-30T19:01:54.567Z,81.13
2022-10-30T19:04:23.809Z,80.44
2022-10-30T19:06:51.939Z,81.99
2022-10-30T19:09:19.652Z,80.28
2022-10-30T19:11:47.544Z,79.60
2022-10-30T19:14:16.448Z,80.17
2022-10-30T19:16:44.652Z,78.76
2022-10-30T19:19:14.808Z,79.62
2022-10-30T19:21:43.857Z,78.59
2022-10-30T19:24:15.001Z,78.68
2022-10-30T19:26:45.121Z,80.97
2022-10-30T19:29:12.858Z,82.20
2022-10-30T19:31:40.630Z,81.46
2022-10-30T19:34:08.326Z,82.99
2022-10-30T19:36:37.847Z,80.76
2022-10-30T19:39:12.576Z,79.90
2022-10-30T19:41:41.186Z,79.19
2022-10-30T19:44:09.273Z,77.96
2022-10-30T19:46:37.485Z,78.29
2022-10-30T19:49:16.075Z,77.81
2022-10-30T19:51:43.784Z,82.36
2022-10-30T19:54:12.949Z,84.59
2022-10-30T19:56:42.163Z,81.88
2022-10-30T19:59:10.575Z,80.28
2022-10-30T20:01:38.441Z,79.14
2022-10-30T20:04:06.352Z,78.82
2022-10-30T20:06:34.480Z,85.90
2022-10-30T20:09:02.584Z,85.24
2022-10-30T20:11:31.895Z,81.42
2022-10-30T20:13:59.620Z,81.10
2022-10-30T20:16:29.415Z,80.32
2022-10-30T20:18:57.147Z,81.29
2022-10-30T20:21:24.973Z,79.81
2022-10-30T20:23:52.740Z,78.83
2022-10-30T20:26:25.225Z,83.13
2022-10-30T20:28:54.699Z,83.25
2022-10-30T20:31:23.365Z,83.79
2022-10-30T20:33:51.076Z,83.15
2022-10-30T20:36:18.833Z,84.93
2022-10-30T20:38:46.549Z,83.43
2022-10-30T20:41:21.968Z,82.53
2022-10-30T20:43:51.026Z,81.43
2022-10-30T20:46:21.377Z,80.58
2022-10-30T20:48:49.334Z,79.35
2022-10-30T20:51:17.047Z,79.33
2022-10-30T20:53:44.843Z,78.67
2022-10-30T20:56:12.601Z,78.68
2022-10-30T20:58:40.392Z,78.07
2022-10-30T21:01:08.204Z,78.45
2022-10-30T21:03:37.329Z,79.90
2022-10-30T21:06:06.135Z,79.71
2022-10-30T21:08:33.811Z,79.47
2022-10-30T21:11:02.933Z,79.80
2022-10-30T21:13:31.246Z,79.31
2022-10-30T21:16:01.880Z,79.14
2022-10-30T21:18:29.600Z,83.70
2022-10-30T21:21:02.386Z,83.20
2022-10-30T21:23:30.337Z,82.09
2022-10-30T21:26:01.068Z,80.79
2022-10-30T21:28:29.063Z,79.71
2022-10-30T21:31:02.007Z,79.04
2022-10-30T21:33:31.216Z,77.42
2022-10-30T21:36:09.011Z,81.88
2022-10-30T21:38:42.601Z,83.59
2022-10-30T21:41:11.243Z,82.46
2022-10-30T21:43:38.990Z,79.70
2022-10-30T21:46:07.462Z,79.84
2022-10-30T21:48:35.377Z,79.05
2022-10-30T21:51:10.793Z,78.81
2022-10-30T21:53:38.644Z,80.08
2022-10-30T21:56:10.568Z,84.04
2022-10-30T21:58:38.415Z,82.13
2022-10-30T22:01:06.904Z,84.27
2022-10-30T22:03:34.906Z,84.98
2022-10-30T22:06:06.893Z,82.48
2022-10-30T22:08:34.632Z,82.51
2022-10-30T22:11:06.168Z,82.62
2022-10-30T22:13:35.923Z,81.14
2022-10-30T22:16:05.038Z,81.19
2022-10-30T22:18:33.413Z,79.15
2022-10-30T22:21:02.147Z,81.98
2022-10-30T22:23:30.539Z,80.44
2022-10-30T22:25:59.800Z,79.15
2022-10-30T22:28:28.346Z,81.80
2022-10-30T22:31:02.469Z,80.95
2022-10-30T22:33:31.515Z,79.50
2022-10-30T22:36:02.954Z,78.94
2022-10-30T22:38:30.645Z,78.58
2022-10-30T22:41:11.665Z,80.06
2022-10-30T22:43:39.455Z,81.06
2022-10-30T22:46:08.806Z,79.96
2022-10-30T22:48:36.724Z,80.29
2022-10-30T22:51:07.677Z,79.46
2022-10-30T22:53:38.021Z,79.31
2022-10-30T22:56:13.769Z,79.60
2022-10-30T22:58:41.933Z,80.49
2022-10-30T23:01:13.242Z,80.42
2022-10-30T23:03:41.391Z,80.35
2022-10-30T23:06:09.944Z,79.05
2022-10-30T23:08:37.746Z,79.80
2022-10-30T23:11:06.757Z,80.33
2022-10-30T23:13:36.066Z,81.19
2022-10-30T23:16:09.056Z,79.11
2022-10-30T23:18:38.288Z,80.04
2022-10-30T23:21:08.743Z,80.04
2022-10-30T23:23:37.025Z,79.97
2022-10-30T23:26:06.165Z,79.24
2022-10-30T23:28:36.625Z,79.75
2022-10-30T23:31:05.368Z,79.47
2022-10-30T23:33:33.098Z,79.20
2022-10-30T23:36:02.596Z,78.54
2022-10-30T23:38:30.474Z,78.41
2022-10-30T23:40:58.304Z,81.06
2022-10-30T23:43:26.113Z,81.87
2022-10-30T23:45:53.797Z,81.29
2022-10-30T23:48:21.529Z,79.76
2022-10-30T23:50:49.285Z,80.28
2022-10-30T23:53:18.439Z,80.19
2022-10-30T23:55:51.743Z,79.74
2022-10-30T23:58:19.695Z,79.79
